sensor_id;sensor_type;location;lat;lon;timestamp;P1;durP1;ratioP1;P2;durP2;ratioP2
71116;SDS011;58775;46.992;9.518;2023-04-03T00:01:29;2.25;;;0.63;;
71116;SDS011;58775;46.992;9.518;2023-04-03T00:03:31;2.65;;;0.70;;
71116;SDS011;58775;46.992;9.518;2023-04-03T00:05:32;1.40;;;0.60;;
71116;SDS011;58775;46.992;9.518;2023-04-03T00:07:34;1.90;;;0.60;;
71116;SDS011;58775;46.992;9.518;2023-04-03T00:09:35;1.92;;;0.55;;
71116;SDS011;58775;46.992;9.518;2023-04-03T00:11:36;1.98;;;0.82;;
71116;SDS011;58775;46.992;9.518;2023-04-03T00:13:38;2.17;;;0.63;;
71116;SDS011;58775;46.992;9.518;2023-04-03T00:15:40;1.80;;;0.60;;
71116;SDS011;58775;46.992;9.518;2023-04-03T00:17:41;1.48;;;0.57;;
71116;SDS011;58775;46.992;9.518;2023-04-03T00:19:42;1.98;;;0.60;;
71116;SDS011;58775;46.992;9.518;2023-04-03T00:21:43;2.17;;;0.70;;
71116;SDS011;58775;46.992;9.518;2023-04-03T00:23:45;2.70;;;0.70;;
71116;SDS011;58775;46.992;9.518;2023-04-03T00:25:46;2.15;;;0.88;;
71116;SDS011;58775;46.992;9.518;2023-04-03T00:27:47;1.67;;;0.70;;
71116;SDS011;58775;46.992;9.518;2023-04-03T00:29:48;1.92;;;0.60;;
71116;SDS011;58775;46.992;9.518;2023-04-03T00:31:49;1.42;;;0.50;;
71116;SDS011;58775;46.992;9.518;2023-04-03T00:33:50;1.95;;;0.70;;
71116;SDS011;58775;46.992;9.518;2023-04-03T00:35:52;1.77;;;0.68;;
71116;SDS011;58775;46.992;9.518;2023-04-03T00:37:53;2.63;;;0.70;;
71116;SDS011;58775;46.992;9.518;2023-04-03T00:39:56;1.63;;;0.60;;
71116;SDS011;58775;46.992;9.518;2023-04-03T00:41:57;2.50;;;0.90;;
71116;SDS011;58775;46.992;9.518;2023-04-03T00:43:58;2.33;;;0.60;;
71116;SDS011;58775;46.992;9.518;2023-04-03T00:46:00;2.08;;;0.70;;
71116;SDS011;58775;46.992;9.518;2023-04-03T00:48:02;1.50;;;0.50;;
71116;SDS011;58775;46.992;9.518;2023-04-03T00:50:06;2.53;;;0.68;;
71116;SDS011;58775;46.992;9.518;2023-04-03T00:52:11;2.42;;;0.63;;
71116;SDS011;58775;46.992;9.518;2023-04-03T00:54:17;2.28;;;0.70;;
71116;SDS011;58775;46.992;9.518;2023-04-03T00:56:19;1.55;;;0.50;;
71116;SDS011;58775;46.992;9.518;2023-04-03T00:58:30;1.92;;;0.60;;
71116;SDS011;58775;46.992;9.518;2023-04-03T01:00:41;1.95;;;0.60;;
71116;SDS011;58775;46.992;9.518;2023-04-03T01:02:46;1.48;;;0.45;;
71116;SDS011;58775;46.992;9.518;2023-04-03T01:04:49;1.42;;;0.60;;
71116;SDS011;58775;46.992;9.518;2023-04-03T01:06:50;1.20;;;0.50;;
71116;SDS011;58775;46.992;9.518;2023-04-03T01:08:52;1.13;;;0.43;;
71116;SDS011;58775;46.992;9.518;2023-04-03T01:10:55;1.10;;;0.50;;
71116;SDS011;58775;46.992;9.518;2023-04-03T01:12:57;1.40;;;0.40;;
71116;SDS011;58775;46.992;9.518;2023-04-03T01:15:22;1.10;;;0.50;;
71116;SDS011;58775;46.992;9.518;2023-04-03T01:17:27;1.58;;;0.50;;
71116;SDS011;58775;46.992;9.518;2023-04-03T01:19:36;1.58;;;0.40;;
71116;SDS011;58775;46.992;9.518;2023-04-03T01:26:37;1.65;;;0.50;;
71116;SDS011;58775;46.992;9.518;2023-04-03T01:28:38;1.48;;;0.57;;
71116;SDS011;58775;46.992;9.518;2023-04-03T01:30:44;1.08;;;0.40;;
71116;SDS011;58775;46.992;9.518;2023-04-03T01:32:47;1.05;;;0.40;;
71116;SDS011;58775;46.992;9.518;2023-04-03T01:34:49;0.88;;;0.30;;
71116;SDS011;58775;46.992;9.518;2023-04-03T01:36:50;0.63;;;0.30;;
71116;SDS011;58775;46.992;9.518;2023-04-03T01:38:53;0.90;;;0.30;;
71116;SDS011;58775;46.992;9.518;2023-04-03T01:40:54;1.25;;;0.40;;
71116;SDS011;58775;46.992;9.518;2023-04-03T01:42:55;1.52;;;0.40;;
71116;SDS011;58775;46.992;9.518;2023-04-03T01:44:57;0.60;;;0.30;;
71116;SDS011;58775;46.992;9.518;2023-04-03T01:46:58;0.95;;;0.40;;
71116;SDS011;58775;46.992;9.518;2023-04-03T01:49:01;1.80;;;0.40;;
71116;SDS011;58775;46.992;9.518;2023-04-03T01:51:03;0.68;;;0.22;;
71116;SDS011;58775;46.992;9.518;2023-04-03T01:53:04;1.48;;;0.40;;
71116;SDS011;58775;46.992;9.518;2023-04-03T01:55:05;1.00;;;0.40;;
71116;SDS011;58775;46.992;9.518;2023-04-03T01:57:07;0.95;;;0.40;;
71116;SDS011;58775;46.992;9.518;2023-04-03T01:59:09;1.08;;;0.40;;
71116;SDS011;58775;46.992;9.518;2023-04-03T02:01:10;1.65;;;0.40;;
71116;SDS011;58775;46.992;9.518;2023-04-03T02:03:11;1.73;;;0.60;;
71116;SDS011;58775;46.992;9.518;2023-04-03T02:05:13;1.50;;;0.50;;
71116;SDS011;58775;46.992;9.518;2023-04-03T02:07:14;1.85;;;0.60;;
71116;SDS011;58775;46.992;9.518;2023-04-03T02:09:15;1.05;;;0.40;;
71116;SDS011;58775;46.992;9.518;2023-04-03T02:11:16;1.27;;;0.50;;
71116;SDS011;58775;46.992;9.518;2023-04-03T02:13:18;1.35;;;0.50;;
71116;SDS011;58775;46.992;9.518;2023-04-03T02:15:19;2.08;;;0.55;;
71116;SDS011;58775;46.992;9.518;2023-04-03T02:17:21;2.13;;;0.73;;
71116;SDS011;58775;46.992;9.518;2023-04-03T02:19:23;1.33;;;0.47;;
71116;SDS011;58775;46.992;9.518;2023-04-03T02:21:24;2.40;;;0.60;;
71116;SDS011;58775;46.992;9.518;2023-04-03T02:23:25;2.90;;;0.80;;
71116;SDS011;58775;46.992;9.518;2023-04-03T02:25:26;2.40;;;0.43;;
71116;SDS011;58775;46.992;9.518;2023-04-03T02:27:27;2.30;;;0.57;;
71116;SDS011;58775;46.992;9.518;2023-04-03T02:29:28;2.73;;;0.50;;
71116;SDS011;58775;46.992;9.518;2023-04-03T02:31:30;3.35;;;0.80;;
71116;SDS011;58775;46.992;9.518;2023-04-03T02:33:32;1.85;;;0.65;;
71116;SDS011;58775;46.992;9.518;2023-04-03T02:35:34;2.28;;;0.75;;
71116;SDS011;58775;46.992;9.518;2023-04-03T02:37:37;2.55;;;0.80;;
71116;SDS011;58775;46.992;9.518;2023-04-03T02:39:39;2.10;;;0.77;;
71116;SDS011;58775;46.992;9.518;2023-04-03T02:41:40;2.63;;;0.70;;
71116;SDS011;58775;46.992;9.518;2023-04-03T02:43:47;2.13;;;0.60;;
71116;SDS011;58775;46.992;9.518;2023-04-03T02:45:49;2.85;;;0.80;;
71116;SDS011;58775;46.992;9.518;2023-04-03T02:47:50;1.98;;;0.80;;
71116;SDS011;58775;46.992;9.518;2023-04-03T02:49:51;2.30;;;0.70;;
71116;SDS011;58775;46.992;9.518;2023-04-03T02:51:53;2.67;;;0.90;;
71116;SDS011;58775;46.992;9.518;2023-04-03T02:56:44;2.53;;;1.00;;
71116;SDS011;58775;46.992;9.518;2023-04-03T02:58:47;2.97;;;1.17;;
71116;SDS011;58775;46.992;9.518;2023-04-03T03:00:49;2.50;;;1.00;;
71116;SDS011;58775;46.992;9.518;2023-04-03T03:02:50;2.25;;;0.90;;
71116;SDS011;58775;46.992;9.518;2023-04-03T03:04:52;3.78;;;1.27;;
71116;SDS011;58775;46.992;9.518;2023-04-03T03:06:53;3.03;;;0.98;;
71116;SDS011;58775;46.992;9.518;2023-04-03T03:08:54;2.60;;;1.00;;
71116;SDS011;58775;46.992;9.518;2023-04-03T03:10:55;3.73;;;1.20;;
71116;SDS011;58775;46.992;9.518;2023-04-03T03:12:56;3.72;;;1.13;;
71116;SDS011;58775;46.992;9.518;2023-04-03T03:14:58;3.13;;;1.25;;
71116;SDS011;58775;46.992;9.518;2023-04-03T03:16:59;2.58;;;0.90;;
71116;SDS011;58775;46.992;9.518;2023-04-03T03:19:00;3.13;;;1.27;;
71116;SDS011;58775;46.992;9.518;2023-04-03T03:21:02;3.60;;;1.10;;
71116;SDS011;58775;46.992;9.518;2023-04-03T03:23:04;3.95;;;1.52;;
71116;SDS011;58775;46.992;9.518;2023-04-03T03:25:05;3.78;;;1.40;;
71116;SDS011;58775;46.992;9.518;2023-04-03T03:27:07;5.00;;;1.67;;
71116;SDS011;58775;46.992;9.518;2023-04-03T03:29:08;4.13;;;1.38;;
71116;SDS011;58775;46.992;9.518;2023-04-03T03:31:09;4.53;;;1.30;;
71116;SDS011;58775;46.992;9.518;2023-04-03T03:33:12;4.03;;;1.40;;
71116;SDS011;58775;46.992;9.518;2023-04-03T03:35:13;4.53;;;1.48;;
71116;SDS011;58775;46.992;9.518;2023-04-03T03:37:14;4.10;;;1.30;;
71116;SDS011;58775;46.992;9.518;2023-04-03T03:39:15;4.68;;;1.27;;
71116;SDS011;58775;46.992;9.518;2023-04-03T03:41:17;4.73;;;2.03;;
71116;SDS011;58775;46.992;9.518;2023-04-03T03:43:19;6.32;;;1.98;;
71116;SDS011;58775;46.992;9.518;2023-04-03T03:45:24;4.07;;;1.70;;
71116;SDS011;58775;46.992;9.518;2023-04-03T03:47:25;5.07;;;1.80;;
71116;SDS011;58775;46.992;9.518;2023-04-03T03:49:26;5.63;;;2.05;;
71116;SDS011;58775;46.992;9.518;2023-04-03T03:51:27;6.23;;;2.50;;
71116;SDS011;58775;46.992;9.518;2023-04-03T03:53:29;4.63;;;1.92;;
71116;SDS011;58775;46.992;9.518;2023-04-03T03:55:34;5.88;;;2.15;;
71116;SDS011;58775;46.992;9.518;2023-04-03T03:57:35;5.93;;;2.20;;
71116;SDS011;58775;46.992;9.518;2023-04-03T03:59:37;5.22;;;1.90;;
71116;SDS011;58775;46.992;9.518;2023-04-03T04:01:39;5.00;;;1.93;;
71116;SDS011;58775;46.992;9.518;2023-04-03T04:03:41;4.70;;;1.80;;
71116;SDS011;58775;46.992;9.518;2023-04-03T04:05:44;5.03;;;1.95;;
71116;SDS011;58775;46.992;9.518;2023-04-03T04:07:45;5.57;;;2.17;;
71116;SDS011;58775;46.992;9.518;2023-04-03T04:09:46;5.30;;;2.30;;
71116;SDS011;58775;46.992;9.518;2023-04-03T04:11:47;5.03;;;2.10;;
71116;SDS011;58775;46.992;9.518;2023-04-03T04:13:51;5.13;;;2.33;;
71116;SDS011;58775;46.992;9.518;2023-04-03T04:15:54;6.55;;;2.05;;
71116;SDS011;58775;46.992;9.518;2023-04-03T04:17:55;6.13;;;1.90;;
71116;SDS011;58775;46.992;9.518;2023-04-03T04:19:57;4.88;;;2.03;;
71116;SDS011;58775;46.992;9.518;2023-04-03T04:21:59;5.00;;;2.40;;
71116;SDS011;58775;46.992;9.518;2023-04-03T04:24:01;6.00;;;2.38;;
71116;SDS011;58775;46.992;9.518;2023-04-03T04:26:03;5.70;;;2.33;;
71116;SDS011;58775;46.992;9.518;2023-04-03T04:28:08;6.03;;;2.47;;
71116;SDS011;58775;46.992;9.518;2023-04-03T04:30:09;6.15;;;2.30;;
71116;SDS011;58775;46.992;9.518;2023-04-03T04:32:11;4.83;;;1.87;;
71116;SDS011;58775;46.992;9.518;2023-04-03T04:34:12;4.82;;;2.00;;
71116;SDS011;58775;46.992;9.518;2023-04-03T04:36:14;4.78;;;2.00;;
71116;SDS011;58775;46.992;9.518;2023-04-03T04:38:16;4.13;;;1.90;;
71116;SDS011;58775;46.992;9.518;2023-04-03T04:40:18;6.50;;;2.28;;
71116;SDS011;58775;46.992;9.518;2023-04-03T04:42:19;4.93;;;1.77;;
71116;SDS011;58775;46.992;9.518;2023-04-03T04:44:22;5.60;;;1.92;;
71116;SDS011;58775;46.992;9.518;2023-04-03T04:46:23;4.80;;;2.00;;
71116;SDS011;58775;46.992;9.518;2023-04-03T04:48:29;5.25;;;2.05;;
71116;SDS011;58775;46.992;9.518;2023-04-03T04:50:30;4.90;;;2.10;;
71116;SDS011;58775;46.992;9.518;2023-04-03T04:52:31;6.13;;;2.28;;
71116;SDS011;58775;46.992;9.518;2023-04-03T04:54:34;5.78;;;2.25;;
71116;SDS011;58775;46.992;9.518;2023-04-03T04:56:36;5.88;;;2.22;;
71116;SDS011;58775;46.992;9.518;2023-04-03T04:58:37;5.57;;;2.17;;
71116;SDS011;58775;46.992;9.518;2023-04-03T05:00:38;4.77;;;2.20;;
71116;SDS011;58775;46.992;9.518;2023-04-03T05:02:42;5.43;;;2.42;;
71116;SDS011;58775;46.992;9.518;2023-04-03T05:04:44;5.43;;;2.28;;
71116;SDS011;58775;46.992;9.518;2023-04-03T05:06:51;6.38;;;2.03;;
71116;SDS011;58775;46.992;9.518;2023-04-03T05:08:57;5.22;;;2.22;;
71116;SDS011;58775;46.992;9.518;2023-04-03T05:10:59;6.20;;;2.40;;
71116;SDS011;58775;46.992;9.518;2023-04-03T05:13:01;5.63;;;2.40;;
71116;SDS011;58775;46.992;9.518;2023-04-03T05:15:03;5.45;;;2.20;;
71116;SDS011;58775;46.992;9.518;2023-04-03T05:17:05;6.70;;;2.20;;
71116;SDS011;58775;46.992;9.518;2023-04-03T05:19:09;4.95;;;2.30;;
71116;SDS011;58775;46.992;9.518;2023-04-03T05:21:12;5.63;;;2.20;;
71116;SDS011;58775;46.992;9.518;2023-04-03T05:23:13;5.85;;;2.40;;
71116;SDS011;58775;46.992;9.518;2023-04-03T05:25:15;5.35;;;2.30;;
71116;SDS011;58775;46.992;9.518;2023-04-03T05:27:18;4.47;;;1.88;;
71116;SDS011;58775;46.992;9.518;2023-04-03T05:29:24;6.53;;;2.38;;
71116;SDS011;58775;46.992;9.518;2023-04-03T05:31:25;5.63;;;2.23;;
71116;SDS011;58775;46.992;9.518;2023-04-03T05:33:30;5.95;;;2.40;;
71116;SDS011;58775;46.992;9.518;2023-04-03T05:35:35;4.93;;;2.05;;
71116;SDS011;58775;46.992;9.518;2023-04-03T05:37:40;5.72;;;2.50;;
71116;SDS011;58775;46.992;9.518;2023-04-03T05:39:41;5.43;;;2.05;;
71116;SDS011;58775;46.992;9.518;2023-04-03T05:41:43;5.13;;;2.07;;
71116;SDS011;58775;46.992;9.518;2023-04-03T05:43:45;4.72;;;2.08;;
71116;SDS011;58775;46.992;9.518;2023-04-03T05:45:47;7.28;;;2.40;;
71116;SDS011;58775;46.992;9.518;2023-04-03T05:47:49;6.15;;;2.65;;
71116;SDS011;58775;46.992;9.518;2023-04-03T05:49:50;5.60;;;2.28;;
71116;SDS011;58775;46.992;9.518;2023-04-03T05:51:52;6.20;;;2.80;;
71116;SDS011;58775;46.992;9.518;2023-04-03T05:56:18;5.65;;;2.58;;
71116;SDS011;58775;46.992;9.518;2023-04-03T05:58:20;6.03;;;2.38;;
71116;SDS011;58775;46.992;9.518;2023-04-03T06:00:23;5.10;;;2.42;;
71116;SDS011;58775;46.992;9.518;2023-04-03T06:02:33;7.87;;;2.70;;
71116;SDS011;58775;46.992;9.518;2023-04-03T06:04:34;6.38;;;3.00;;
71116;SDS011;58775;46.992;9.518;2023-04-03T06:06:54;7.03;;;3.20;;
71116;SDS011;58775;46.992;9.518;2023-04-03T06:08:59;5.97;;;2.58;;
71116;SDS011;58775;46.992;9.518;2023-04-03T06:11:00;7.10;;;3.00;;
71116;SDS011;58775;46.992;9.518;2023-04-03T06:13:02;7.18;;;3.15;;
71116;SDS011;58775;46.992;9.518;2023-04-03T06:15:03;6.60;;;2.80;;
71116;SDS011;58775;46.992;9.518;2023-04-03T06:17:05;6.53;;;2.80;;
71116;SDS011;58775;46.992;9.518;2023-04-03T06:19:07;7.07;;;3.40;;
71116;SDS011;58775;46.992;9.518;2023-04-03T06:21:10;7.93;;;3.30;;
71116;SDS011;58775;46.992;9.518;2023-04-03T06:23:11;6.68;;;3.15;;
71116;SDS011;58775;46.992;9.518;2023-04-03T06:25:13;6.80;;;3.50;;
71116;SDS011;58775;46.992;9.518;2023-04-03T06:27:21;7.60;;;3.17;;
71116;SDS011;58775;46.992;9.518;2023-04-03T06:29:22;7.57;;;3.60;;
71116;SDS011;58775;46.992;9.518;2023-04-03T06:31:24;8.93;;;3.67;;
71116;SDS011;58775;46.992;9.518;2023-04-03T06:33:25;8.05;;;3.60;;
71116;SDS011;58775;46.992;9.518;2023-04-03T06:35:26;6.45;;;3.10;;
71116;SDS011;58775;46.992;9.518;2023-04-03T06:37:29;7.13;;;3.30;;
71116;SDS011;58775;46.992;9.518;2023-04-03T06:39:31;7.03;;;3.33;;
71116;SDS011;58775;46.992;9.518;2023-04-03T06:41:33;7.25;;;3.45;;
71116;SDS011;58775;46.992;9.518;2023-04-03T06:43:34;7.72;;;3.60;;
71116;SDS011;58775;46.992;9.518;2023-04-03T06:45:35;8.13;;;3.78;;
71116;SDS011;58775;46.992;9.518;2023-04-03T06:47:36;8.32;;;3.30;;
71116;SDS011;58775;46.992;9.518;2023-04-03T06:49:37;7.80;;;3.10;;
71116;SDS011;58775;46.992;9.518;2023-04-03T06:51:38;7.68;;;3.38;;
71116;SDS011;58775;46.992;9.518;2023-04-03T06:53:39;7.00;;;3.20;;
71116;SDS011;58775;46.992;9.518;2023-04-03T06:55:40;6.63;;;2.85;;
71116;SDS011;58775;46.992;9.518;2023-04-03T06:57:41;6.97;;;3.23;;
71116;SDS011;58775;46.992;9.518;2023-04-03T06:59:43;6.60;;;3.10;;
71116;SDS011;58775;46.992;9.518;2023-04-03T07:01:43;8.25;;;3.70;;
71116;SDS011;58775;46.992;9.518;2023-04-03T07:03:45;9.02;;;3.60;;
71116;SDS011;58775;46.992;9.518;2023-04-03T07:05:48;9.90;;;3.80;;
71116;SDS011;58775;46.992;9.518;2023-04-03T07:07:50;6.87;;;3.03;;
71116;SDS011;58775;46.992;9.518;2023-04-03T07:09:51;7.32;;;2.97;;
71116;SDS011;58775;46.992;9.518;2023-04-03T07:11:52;7.43;;;3.38;;
71116;SDS011;58775;46.992;9.518;2023-04-03T07:13:54;6.38;;;3.05;;
71116;SDS011;58775;46.992;9.518;2023-04-03T07:15:56;6.80;;;3.25;;
71116;SDS011;58775;46.992;9.518;2023-04-03T07:17:57;6.93;;;3.13;;
71116;SDS011;58775;46.992;9.518;2023-04-03T07:19:58;8.98;;;3.95;;
71116;SDS011;58775;46.992;9.518;2023-04-03T07:21:59;7.13;;;3.40;;
71116;SDS011;58775;46.992;9.518;2023-04-03T07:24:01;7.05;;;3.30;;
71116;SDS011;58775;46.992;9.518;2023-04-03T07:26:03;7.80;;;3.38;;
71116;SDS011;58775;46.992;9.518;2023-04-03T07:28:05;6.90;;;3.10;;
71116;SDS011;58775;46.992;9.518;2023-04-03T07:30:09;6.55;;;3.25;;
71116;SDS011;58775;46.992;9.518;2023-04-03T07:32:11;6.45;;;3.20;;
71116;SDS011;58775;46.992;9.518;2023-04-03T07:34:14;6.65;;;3.38;;
71116;SDS011;58775;46.992;9.518;2023-04-03T07:36:17;7.18;;;3.22;;
71116;SDS011;58775;46.992;9.518;2023-04-03T07:38:20;7.30;;;3.50;;
71116;SDS011;58775;46.992;9.518;2023-04-03T07:40:27;7.13;;;2.97;;
71116;SDS011;58775;46.992;9.518;2023-04-03T07:42:49;5.97;;;2.83;;
71116;SDS011;58775;46.992;9.518;2023-04-03T07:45:52;6.78;;;2.85;;
71116;SDS011;58775;46.992;9.518;2023-04-03T07:48:05;6.68;;;2.80;;
71116;SDS011;58775;46.992;9.518;2023-04-03T07:50:07;6.10;;;3.10;;
71116;SDS011;58775;46.992;9.518;2023-04-03T07:52:13;5.93;;;2.65;;
71116;SDS011;58775;46.992;9.518;2023-04-03T07:54:17;7.82;;;2.92;;
71116;SDS011;58775;46.992;9.518;2023-04-03T07:56:19;6.18;;;2.58;;
71116;SDS011;58775;46.992;9.518;2023-04-03T07:58:21;5.43;;;2.55;;
71116;SDS011;58775;46.992;9.518;2023-04-03T08:00:22;5.83;;;2.60;;
71116;SDS011;58775;46.992;9.518;2023-04-03T08:02:24;5.07;;;2.25;;
71116;SDS011;58775;46.992;9.518;2023-04-03T08:04:26;8.82;;;2.95;;
71116;SDS011;58775;46.992;9.518;2023-04-03T08:06:38;7.00;;;2.60;;
71116;SDS011;58775;46.992;9.518;2023-04-03T08:08:40;6.15;;;3.05;;
71116;SDS011;58775;46.992;9.518;2023-04-03T08:10:42;7.17;;;3.00;;
71116;SDS011;58775;46.992;9.518;2023-04-03T08:12:45;6.35;;;2.90;;
71116;SDS011;58775;46.992;9.518;2023-04-03T08:14:47;5.45;;;2.50;;
71116;SDS011;58775;46.992;9.518;2023-04-03T08:16:48;5.57;;;2.35;;
71116;SDS011;58775;46.992;9.518;2023-04-03T08:18:50;5.95;;;2.63;;
71116;SDS011;58775;46.992;9.518;2023-04-03T08:20:52;5.33;;;2.30;;
71116;SDS011;58775;46.992;9.518;2023-04-03T08:23:01;7.82;;;2.38;;
71116;SDS011;58775;46.992;9.518;2023-04-03T08:25:03;5.78;;;2.45;;
71116;SDS011;58775;46.992;9.518;2023-04-03T08:27:05;5.88;;;2.40;;
71116;SDS011;58775;46.992;9.518;2023-04-03T08:29:07;6.32;;;2.97;;
71116;SDS011;58775;46.992;9.518;2023-04-03T08:31:11;5.50;;;2.30;;
71116;SDS011;58775;46.992;9.518;2023-04-03T08:33:14;5.15;;;2.17;;
71116;SDS011;58775;46.992;9.518;2023-04-03T08:35:16;5.18;;;2.20;;
71116;SDS011;58775;46.992;9.518;2023-04-03T08:37:18;5.18;;;2.05;;
71116;SDS011;58775;46.992;9.518;2023-04-03T08:39:19;5.20;;;2.15;;
71116;SDS011;58775;46.992;9.518;2023-04-03T08:43:53;5.38;;;2.35;;
71116;SDS011;58775;46.992;9.518;2023-04-03T08:46:17;5.25;;;2.40;;
71116;SDS011;58775;46.992;9.518;2023-04-03T08:50:45;4.20;;;1.75;;
71116;SDS011;58775;46.992;9.518;2023-04-03T08:52:57;5.33;;;2.17;;
71116;SDS011;58775;46.992;9.518;2023-04-03T08:55:01;4.65;;;1.90;;
71116;SDS011;58775;46.992;9.518;2023-04-03T08:57:09;5.85;;;2.40;;
71116;SDS011;58775;46.992;9.518;2023-04-03T08:59:14;5.88;;;2.30;;
71116;SDS011;58775;46.992;9.518;2023-04-03T09:03:41;6.27;;;2.63;;
71116;SDS011;58775;46.992;9.518;2023-04-03T09:08:21;5.82;;;2.42;;
71116;SDS011;58775;46.992;9.518;2023-04-03T09:10:44;5.47;;;2.75;;
71116;SDS011;58775;46.992;9.518;2023-04-03T09:12:47;6.63;;;3.13;;
71116;SDS011;58775;46.992;9.518;2023-04-03T09:14:57;5.73;;;2.53;;
71116;SDS011;58775;46.992;9.518;2023-04-03T09:17:16;6.32;;;2.83;;
71116;SDS011;58775;46.992;9.518;2023-04-03T09:21:37;5.90;;;2.55;;
71116;SDS011;58775;46.992;9.518;2023-04-03T09:23:46;6.85;;;2.67;;
71116;SDS011;58775;46.992;9.518;2023-04-03T09:25:56;6.33;;;2.70;;
71116;SDS011;58775;46.992;9.518;2023-04-03T09:28:05;6.80;;;2.92;;
71116;SDS011;58775;46.992;9.518;2023-04-03T09:30:14;7.45;;;3.05;;
71116;SDS011;58775;46.992;9.518;2023-04-03T09:34:35;6.35;;;3.05;;
71116;SDS011;58775;46.992;9.518;2023-04-03T09:36:38;5.17;;;2.57;;
71116;SDS011;58775;46.992;9.518;2023-04-03T09:38:43;6.50;;;2.75;;
71116;SDS011;58775;46.992;9.518;2023-04-03T09:40:50;5.55;;;2.72;;
71116;SDS011;58775;46.992;9.518;2023-04-03T09:45:32;6.95;;;3.00;;
71116;SDS011;58775;46.992;9.518;2023-04-03T09:47:35;5.73;;;2.67;;
71116;SDS011;58775;46.992;9.518;2023-04-03T09:49:38;6.57;;;3.00;;
71116;SDS011;58775;46.992;9.518;2023-04-03T09:51:40;6.93;;;3.17;;
71116;SDS011;58775;46.992;9.518;2023-04-03T09:53:42;7.20;;;3.20;;
71116;SDS011;58775;46.992;9.518;2023-04-03T09:55:44;6.55;;;2.70;;
71116;SDS011;58775;46.992;9.518;2023-04-03T09:57:46;6.13;;;3.10;;
71116;SDS011;58775;46.992;9.518;2023-04-03T10:00:00;6.65;;;2.90;;
71116;SDS011;58775;46.992;9.518;2023-04-03T10:02:22;5.80;;;2.80;;
71116;SDS011;58775;46.992;9.518;2023-04-03T10:04:25;7.43;;;2.90;;
71116;SDS011;58775;46.992;9.518;2023-04-03T10:06:46;5.88;;;2.63;;
71116;SDS011;58775;46.992;9.518;2023-04-03T10:09:00;7.57;;;2.90;;
71116;SDS011;58775;46.992;9.518;2023-04-03T10:11:20;6.25;;;2.88;;
71116;SDS011;58775;46.992;9.518;2023-04-03T10:13:24;6.35;;;2.95;;
71116;SDS011;58775;46.992;9.518;2023-04-03T10:15:25;7.20;;;3.45;;
71116;SDS011;58775;46.992;9.518;2023-04-03T10:22:35;6.82;;;2.80;;
71116;SDS011;58775;46.992;9.518;2023-04-03T10:25:01;5.20;;;2.25;;
71116;SDS011;58775;46.992;9.518;2023-04-03T10:27:10;5.47;;;2.50;;
71116;SDS011;58775;46.992;9.518;2023-04-03T10:29:21;7.03;;;3.35;;
71116;SDS011;58775;46.992;9.518;2023-04-03T10:31:53;7.33;;;2.90;;
71116;SDS011;58775;46.992;9.518;2023-04-03T10:34:04;6.15;;;2.63;;
71116;SDS011;58775;46.992;9.518;2023-04-03T10:38:43;5.32;;;2.60;;
71116;SDS011;58775;46.992;9.518;2023-04-03T10:40:52;7.68;;;3.15;;
71116;SDS011;58775;46.992;9.518;2023-04-03T10:43:09;6.03;;;2.93;;
71116;SDS011;58775;46.992;9.518;2023-04-03T10:45:19;7.00;;;3.05;;
71116;SDS011;58775;46.992;9.518;2023-04-03T11:01:22;7.50;;;3.08;;
71116;SDS011;58775;46.992;9.518;2023-04-03T11:03:35;6.35;;;2.80;;
71116;SDS011;58775;46.992;9.518;2023-04-03T11:05:47;6.77;;;2.90;;
71116;SDS011;58775;46.992;9.518;2023-04-03T11:07:54;6.25;;;2.47;;
71116;SDS011;58775;46.992;9.518;2023-04-03T11:10:00;5.72;;;2.25;;
71116;SDS011;58775;46.992;9.518;2023-04-03T11:12:13;5.22;;;2.30;;
71116;SDS011;58775;46.992;9.518;2023-04-03T11:14:29;4.60;;;2.05;;
71116;SDS011;58775;46.992;9.518;2023-04-03T11:16:37;5.77;;;2.37;;
71116;SDS011;58775;46.992;9.518;2023-04-03T11:19:18;6.03;;;2.20;;
71116;SDS011;58775;46.992;9.518;2023-04-03T11:21:45;5.25;;;2.33;;
71116;SDS011;58775;46.992;9.518;2023-04-03T11:23:52;5.20;;;2.22;;
71116;SDS011;58775;46.992;9.518;2023-04-03T11:26:07;5.85;;;2.75;;
71116;SDS011;58775;46.992;9.518;2023-04-03T11:28:18;4.47;;;2.07;;
71116;SDS011;58775;46.992;9.518;2023-04-03T11:30:33;4.85;;;2.25;;
71116;SDS011;58775;46.992;9.518;2023-04-03T11:35:24;6.55;;;2.70;;
71116;SDS011;58775;46.992;9.518;2023-04-03T11:37:39;4.38;;;1.80;;
71116;SDS011;58775;46.992;9.518;2023-04-03T11:39:56;5.67;;;2.27;;
71116;SDS011;58775;46.992;9.518;2023-04-03T11:44:38;6.03;;;2.17;;
71116;SDS011;58775;46.992;9.518;2023-04-03T11:46:56;4.53;;;2.10;;
71116;SDS011;58775;46.992;9.518;2023-04-03T11:48:59;4.93;;;1.98;;
71116;SDS011;58775;46.992;9.518;2023-04-03T11:51:01;5.67;;;2.20;;
71116;SDS011;58775;46.992;9.518;2023-04-03T11:59:58;6.47;;;2.30;;
71116;SDS011;58775;46.992;9.518;2023-04-03T12:02:00;5.20;;;2.00;;
71116;SDS011;58775;46.992;9.518;2023-04-03T12:04:06;5.93;;;2.60;;
71116;SDS011;58775;46.992;9.518;2023-04-03T12:08:29;4.13;;;1.83;;
71116;SDS011;58775;46.992;9.518;2023-04-03T12:10:33;4.65;;;1.88;;
71116;SDS011;58775;46.992;9.518;2023-04-03T12:12:39;4.47;;;2.07;;
71116;SDS011;58775;46.992;9.518;2023-04-03T12:14:41;4.45;;;1.88;;
71116;SDS011;58775;46.992;9.518;2023-04-03T12:16:44;5.63;;;2.53;;
71116;SDS011;58775;46.992;9.518;2023-04-03T12:20:56;5.78;;;2.08;;
71116;SDS011;58775;46.992;9.518;2023-04-03T12:23:08;6.07;;;2.03;;
71116;SDS011;58775;46.992;9.518;2023-04-03T12:25:49;5.05;;;2.10;;
71116;SDS011;58775;46.992;9.518;2023-04-03T12:27:51;5.05;;;2.40;;
71116;SDS011;58775;46.992;9.518;2023-04-03T12:34:38;5.60;;;2.20;;
71116;SDS011;58775;46.992;9.518;2023-04-03T12:41:28;4.05;;;1.90;;
71116;SDS011;58775;46.992;9.518;2023-04-03T12:48:26;6.20;;;1.88;;
71116;SDS011;58775;46.992;9.518;2023-04-03T12:50:32;5.22;;;2.17;;
71116;SDS011;58775;46.992;9.518;2023-04-03T12:52:41;4.38;;;1.70;;
71116;SDS011;58775;46.992;9.518;2023-04-03T12:54:45;5.50;;;2.00;;
71116;SDS011;58775;46.992;9.518;2023-04-03T12:56:48;5.23;;;2.37;;
71116;SDS011;58775;46.992;9.518;2023-04-03T12:58:51;4.97;;;2.10;;
71116;SDS011;58775;46.992;9.518;2023-04-03T13:03:04;4.63;;;1.83;;
71116;SDS011;58775;46.992;9.518;2023-04-03T13:05:08;5.22;;;2.30;;
71116;SDS011;58775;46.992;9.518;2023-04-03T13:07:18;5.30;;;2.33;;
71116;SDS011;58775;46.992;9.518;2023-04-03T13:09:27;5.22;;;2.20;;
71116;SDS011;58775;46.992;9.518;2023-04-03T13:11:36;6.32;;;2.75;;
71116;SDS011;58775;46.992;9.518;2023-04-03T13:13:53;5.40;;;2.72;;
71116;SDS011;58775;46.992;9.518;2023-04-03T13:15:59;5.30;;;2.65;;
71116;SDS011;58775;46.992;9.518;2023-04-03T13:18:22;5.17;;;2.17;;
71116;SDS011;58775;46.992;9.518;2023-04-03T13:20:30;6.13;;;2.15;;
71116;SDS011;58775;46.992;9.518;2023-04-03T13:22:37;6.65;;;2.72;;
71116;SDS011;58775;46.992;9.518;2023-04-03T13:24:54;6.82;;;2.20;;
71116;SDS011;58775;46.992;9.518;2023-04-03T13:26:58;4.53;;;2.08;;
71116;SDS011;58775;46.992;9.518;2023-04-03T13:29:02;5.70;;;2.53;;
71116;SDS011;58775;46.992;9.518;2023-04-03T13:35:56;4.70;;;2.15;;
71116;SDS011;58775;46.992;9.518;2023-04-03T13:38:05;6.03;;;2.30;;
71116;SDS011;58775;46.992;9.518;2023-04-03T13:40:23;5.97;;;2.67;;
71116;SDS011;58775;46.992;9.518;2023-04-03T13:42:30;4.93;;;2.00;;
71116;SDS011;58775;46.992;9.518;2023-04-03T13:44:36;6.13;;;2.35;;
71116;SDS011;58775;46.992;9.518;2023-04-03T13:46:40;6.07;;;2.30;;
71116;SDS011;58775;46.992;9.518;2023-04-03T13:48:43;5.90;;;2.80;;
71116;SDS011;58775;46.992;9.518;2023-04-03T13:51:03;6.07;;;2.33;;
71116;SDS011;58775;46.992;9.518;2023-04-03T13:53:11;5.75;;;2.33;;
71116;SDS011;58775;46.992;9.518;2023-04-03T13:55:29;7.93;;;3.30;;
71116;SDS011;58775;46.992;9.518;2023-04-03T13:57:35;5.97;;;2.40;;
71116;SDS011;58775;46.992;9.518;2023-04-03T13:59:36;7.28;;;2.80;;